SVA571 OMAA-OEJN
Flight info
| Callsign | SVA571 |
|---|---|
| Flight time | N/A |
| Altitude | 38000 |
| Route | ATUDO M318 GOLGU M550 RIBOT/N0510F280 M550 MEVDO Y511 ASMIS T218 IMGUT M309 VEMEM |
| Aircraft | B77W/H-SDE1E2E3FGHIJ2J3J4J5M1RWXY/LB1D1 |
Departure
| Time | 2026-05-08 04:01 |
|---|---|
| Airport | Zayed International Airport (OMAA) |
Arrival
| Time | N/A |
|---|---|
| Airport | King Abdulaziz International Airport (OEJN) |
| Time | Latitude | Longitude | Altitude | Speed | Heading |
|---|---|---|---|---|---|
| 2026-05-08 03:41 | 24.44516 | 54.64317 | 101 ft | 0 kts | 67° |
| 2026-05-08 03:45 | 24.44515 | 54.64317 | 101 ft | 0 kts | 67° |
| 2026-05-08 03:45 | 24.44510 | 54.64303 | 101 ft | 2 kts | 67° |
| 2026-05-08 03:45 | 24.44504 | 54.64288 | 101 ft | 2 kts | 67° |
| 2026-05-08 03:45 | 24.44498 | 54.64272 | 101 ft | 2 kts | 78° |
| 2026-05-08 03:46 | 24.44498 | 54.64256 | 101 ft | 2 kts | 100° |
| 2026-05-08 03:46 | 24.44502 | 54.64240 | 101 ft | 2 kts | 118° |
| 2026-05-08 03:46 | 24.44511 | 54.64227 | 101 ft | 2 kts | 137° |
| 2026-05-08 03:46 | 24.44523 | 54.64217 | 101 ft | 1 kts | 155° |
| 2026-05-08 03:47 | 24.44528 | 54.64215 | 101 ft | 0 kts | 159° |
| 2026-05-08 03:52 | 24.44515 | 54.64220 | 101 ft | 4 kts | 159° |
| 2026-05-08 03:52 | 24.44475 | 54.64237 | 101 ft | 7 kts | 159° |
| 2026-05-08 03:52 | 24.44419 | 54.64266 | 101 ft | 9 kts | 147° |
| 2026-05-08 03:53 | 24.44369 | 54.64320 | 101 ft | 11 kts | 131° |
| 2026-05-08 03:53 | 24.44314 | 54.64388 | 101 ft | 12 kts | 135° |
| 2026-05-08 03:53 | 24.44242 | 54.64408 | 101 ft | 10 kts | 211° |
| 2026-05-08 03:53 | 24.44181 | 54.64379 | 100 ft | 9 kts | 165° |
| 2026-05-08 03:54 | 24.44127 | 54.64429 | 100 ft | 11 kts | 130° |
| 2026-05-08 03:54 | 24.44078 | 54.64495 | 100 ft | 11 kts | 128° |
| 2026-05-08 03:54 | 24.44025 | 54.64571 | 100 ft | 13 kts | 127° |
| 2026-05-08 03:54 | 24.43966 | 54.64654 | 100 ft | 14 kts | 128° |
| 2026-05-08 03:55 | 24.43905 | 54.64740 | 101 ft | 14 kts | 128° |
| 2026-05-08 03:55 | 24.43840 | 54.64831 | 100 ft | 15 kts | 128° |
| 2026-05-08 03:55 | 24.43775 | 54.64923 | 100 ft | 15 kts | 128° |
| 2026-05-08 03:55 | 24.43709 | 54.65016 | 100 ft | 15 kts | 128° |
| 2026-05-08 03:56 | 24.43642 | 54.65111 | 100 ft | 15 kts | 128° |
| 2026-05-08 03:56 | 24.43576 | 54.65205 | 100 ft | 15 kts | 128° |
| 2026-05-08 03:56 | 24.43510 | 54.65298 | 100 ft | 15 kts | 128° |
| 2026-05-08 03:56 | 24.43441 | 54.65393 | 100 ft | 16 kts | 128° |
| 2026-05-08 03:57 | 24.43375 | 54.65487 | 100 ft | 16 kts | 127° |
| 2026-05-08 03:57 | 24.43309 | 54.65582 | 100 ft | 16 kts | 128° |
| 2026-05-08 03:57 | 24.43240 | 54.65679 | 100 ft | 16 kts | 128° |
| 2026-05-08 03:57 | 24.43173 | 54.65776 | 100 ft | 16 kts | 127° |
| 2026-05-08 03:58 | 24.43105 | 54.65874 | 100 ft | 16 kts | 128° |
| 2026-05-08 03:58 | 24.43036 | 54.65969 | 101 ft | 16 kts | 129° |
| 2026-05-08 03:58 | 24.42972 | 54.66058 | 101 ft | 16 kts | 128° |
| 2026-05-08 03:58 | 24.42911 | 54.66146 | 101 ft | 16 kts | 127° |
| 2026-05-08 03:59 | 24.42736 | 54.66396 | 101 ft | 17 kts | 128° |
| 2026-05-08 03:59 | 24.42448 | 54.66803 | 101 ft | 18 kts | 129° |
| 2026-05-08 03:59 | 24.42386 | 54.66862 | 101 ft | 9 kts | 178° |
| 2026-05-08 03:59 | 24.42318 | 54.66827 | 100 ft | 12 kts | 216° |
| 2026-05-08 04:00 | 24.42244 | 54.66765 | 101 ft | 14 kts | 219° |
| 2026-05-08 04:00 | 24.42195 | 54.66708 | 101 ft | 7 kts | 258° |
| 2026-05-08 04:00 | 24.42215 | 54.66656 | 101 ft | 9 kts | 308° |
| 2026-05-08 04:00 | 24.42306 | 54.66526 | 101 ft | 57 kts | 308° |
| 2026-05-08 04:01 | 24.42717 | 54.65948 | 101 ft | 155 kts | 308° |
| 2026-05-08 04:01 | 24.43457 | 54.64907 | 372 ft | 229 kts | 307° |
| 2026-05-08 04:01 | 24.44458 | 54.63455 | 1864 ft | 248 kts | 306° |
| 2026-05-08 04:01 | 24.45467 | 54.62018 | 3578 ft | 251 kts | 307° |
| 2026-05-08 04:02 | 24.46509 | 54.60549 | 5279 ft | 255 kts | 307° |
| 2026-05-08 04:02 | 24.47593 | 54.59022 | 6872 ft | 262 kts | 307° |
| 2026-05-08 04:02 | 24.48706 | 54.57458 | 8400 ft | 270 kts | 307° |
| 2026-05-08 04:02 | 24.49856 | 54.55849 | 9992 ft | 277 kts | 307° |
| 2026-05-08 04:03 | 24.51034 | 54.54197 | 11567 ft | 283 kts | 308° |
| 2026-05-08 04:03 | 24.53468 | 54.50783 | 14545 ft | 297 kts | 307° |
| 2026-05-08 04:03 | 24.54744 | 54.48981 | 16006 ft | 305 kts | 307° |
| 2026-05-08 04:04 | 24.56035 | 54.47158 | 17431 ft | 312 kts | 306° |
| 2026-05-08 04:04 | 24.57402 | 54.45299 | 18830 ft | 318 kts | 312° |
| 2026-05-08 04:04 | 24.59136 | 54.43807 | 20128 ft | 329 kts | 330° |
| 2026-05-08 04:04 | 24.61276 | 54.42953 | 21408 ft | 338 kts | 349° |
| 2026-05-08 04:05 | 24.63615 | 54.42852 | 22646 ft | 346 kts | 7° |
| 2026-05-08 04:05 | 24.65922 | 54.43527 | 23824 ft | 354 kts | 25° |
| 2026-05-08 04:05 | 24.67984 | 54.44890 | 24943 ft | 361 kts | 39° |
| 2026-05-08 04:05 | 24.69910 | 54.46605 | 26028 ft | 369 kts | 36° |
| 2026-05-08 04:06 | 24.71975 | 54.48238 | 27118 ft | 376 kts | 40° |
| 2026-05-08 04:06 | 24.73745 | 54.50322 | 28192 ft | 383 kts | 57° |
| 2026-05-08 04:06 | 24.74973 | 54.52855 | 29253 ft | 388 kts | 70° |
| 2026-05-08 04:06 | 24.75972 | 54.55550 | 30493 ft | 390 kts | 68° |
| 2026-05-08 04:07 | 24.77124 | 54.58421 | 30540 ft | 433 kts | 67° |
| 2026-05-08 04:07 | 24.78270 | 54.61582 | 30863 ft | 467 kts | 74° |
| 2026-05-08 04:07 | 24.79070 | 54.65203 | 31102 ft | 510 kts | 82° |
| 2026-05-08 04:07 | 24.79365 | 54.69237 | 31741 ft | 545 kts | 92° |
| 2026-05-08 04:08 | 24.79036 | 54.73346 | 33797 ft | 546 kts | 102° |
| 2026-05-08 04:08 | 24.78169 | 54.77287 | 36304 ft | 533 kts | 110° |
| 2026-05-08 04:08 | 24.76897 | 54.80976 | 37870 ft | 527 kts | 116° |
| 2026-05-08 04:08 | 24.75291 | 54.84452 | 37783 ft | 517 kts | 124° |
| 2026-05-08 04:09 | 24.73298 | 54.87558 | 37845 ft | 506 kts | 133° |
| 2026-05-08 04:09 | 24.70911 | 54.90322 | 37852 ft | 502 kts | 142° |
| 2026-05-08 04:09 | 24.65300 | 54.94440 | 37860 ft | 493 kts | 159° |
| 2026-05-08 04:10 | 24.56073 | 54.96726 | 37853 ft | 479 kts | 184° |
| 2026-05-08 04:10 | 24.51751 | 54.96230 | 37845 ft | 472 kts | 195° |
| 2026-05-08 04:11 | 24.45896 | 54.93780 | 37835 ft | 465 kts | 212° |
| 2026-05-08 04:11 | 24.41206 | 54.89681 | 37834 ft | 461 kts | 229° |
| 2026-05-08 04:12 | 24.37771 | 54.83989 | 37834 ft | 458 kts | 246° |
| 2026-05-08 04:12 | 24.36120 | 54.77211 | 37834 ft | 459 kts | 261° |
| 2026-05-08 04:13 | 24.34423 | 54.70484 | 37833 ft | 458 kts | 245° |
| 2026-05-08 04:13 | 24.31588 | 54.64138 | 37827 ft | 459 kts | 244° |
| 2026-05-08 04:14 | 24.28177 | 54.58205 | 37830 ft | 460 kts | 230° |
| 2026-05-08 04:14 | 24.23950 | 54.52908 | 37842 ft | 460 kts | 235° |
| 2026-05-08 04:15 | 24.20511 | 54.46992 | 37851 ft | 459 kts | 240° |
| 2026-05-08 04:15 | 24.17270 | 54.40889 | 37852 ft | 459 kts | 241° |
| 2026-05-08 04:16 | 24.14164 | 54.34900 | 37852 ft | 459 kts | 240° |
| 2026-05-08 04:16 | 24.10979 | 54.28729 | 37858 ft | 459 kts | 241° |
| 2026-05-08 04:17 | 24.07820 | 54.22607 | 37858 ft | 458 kts | 241° |
| 2026-05-08 04:17 | 24.04681 | 54.16526 | 37858 ft | 459 kts | 241° |
| 2026-05-08 04:18 | 24.01528 | 54.10429 | 37857 ft | 458 kts | 241° |
| 2026-05-08 04:18 | 23.98356 | 54.04349 | 37856 ft | 459 kts | 240° |
| 2026-05-08 04:19 | 23.95136 | 53.98255 | 37856 ft | 459 kts | 240° |
| 2026-05-08 04:19 | 23.91938 | 53.92207 | 37855 ft | 459 kts | 240° |
| 2026-05-08 04:20 | 23.88716 | 53.86124 | 37859 ft | 459 kts | 240° |
| 2026-05-08 04:20 | 23.85494 | 53.80049 | 37858 ft | 459 kts | 240° |
| 2026-05-08 04:21 | 23.82284 | 53.74003 | 37857 ft | 459 kts | 240° |
| 2026-05-08 04:21 | 23.79059 | 53.67936 | 37856 ft | 459 kts | 240° |
| 2026-05-08 04:22 | 23.75840 | 53.61887 | 37856 ft | 458 kts | 240° |
| 2026-05-08 04:22 | 23.72623 | 53.55851 | 37855 ft | 459 kts | 240° |
| 2026-05-08 04:23 | 23.69400 | 53.49792 | 37855 ft | 459 kts | 240° |
| 2026-05-08 04:23 | 23.66197 | 53.43744 | 37854 ft | 459 kts | 240° |
| 2026-05-08 04:24 | 23.63001 | 53.37718 | 37853 ft | 459 kts | 240° |
| 2026-05-08 04:24 | 23.59789 | 53.31668 | 37862 ft | 459 kts | 240° |
| 2026-05-08 04:25 | 23.56576 | 53.25624 | 37860 ft | 459 kts | 240° |
| 2026-05-08 04:25 | 23.53342 | 53.19550 | 37859 ft | 459 kts | 240° |
| 2026-05-08 04:26 | 23.50128 | 53.13517 | 37859 ft | 459 kts | 240° |
| 2026-05-08 04:26 | 23.46906 | 53.07477 | 37858 ft | 459 kts | 240° |
| 2026-05-08 04:27 | 23.43684 | 53.01450 | 37858 ft | 458 kts | 240° |
| 2026-05-08 04:27 | 23.40455 | 52.95399 | 37857 ft | 458 kts | 241° |
| 2026-05-08 04:28 | 23.37342 | 52.89320 | 37856 ft | 458 kts | 241° |
| 2026-05-08 04:28 | 23.34208 | 52.83215 | 37856 ft | 458 kts | 241° |
| 2026-05-08 04:29 | 23.31078 | 52.77124 | 37856 ft | 457 kts | 241° |
| 2026-05-08 04:29 | 23.27951 | 52.71048 | 37857 ft | 457 kts | 241° |
| 2026-05-08 04:30 | 23.24826 | 52.64981 | 37857 ft | 457 kts | 241° |
| 2026-05-08 04:30 | 23.21700 | 52.58919 | 37855 ft | 457 kts | 241° |
| 2026-05-08 04:31 | 23.18606 | 52.52865 | 37852 ft | 457 kts | 244° |
| 2026-05-08 04:31 | 23.16355 | 52.46343 | 37860 ft | 457 kts | 250° |
| 2026-05-08 04:32 | 23.14249 | 52.39787 | 37860 ft | 457 kts | 251° |
| 2026-05-08 04:32 | 23.12172 | 52.33257 | 37869 ft | 457 kts | 250° |
| 2026-05-08 04:33 | 23.10077 | 52.26660 | 37872 ft | 457 kts | 250° |
| 2026-05-08 04:33 | 23.07984 | 52.20083 | 37871 ft | 457 kts | 250° |
| 2026-05-08 04:34 | 23.05908 | 52.13565 | 37871 ft | 457 kts | 250° |
| 2026-05-08 04:34 | 23.03815 | 52.07007 | 37871 ft | 457 kts | 250° |
| 2026-05-08 04:35 | 23.01726 | 52.00468 | 37870 ft | 459 kts | 250° |
| 2026-05-08 04:35 | 22.99613 | 51.93864 | 37870 ft | 461 kts | 250° |
| 2026-05-08 04:36 | 22.97486 | 51.87230 | 37869 ft | 463 kts | 250° |
| 2026-05-08 04:36 | 22.95360 | 51.80610 | 37868 ft | 465 kts | 250° |
| 2026-05-08 04:37 | 22.93210 | 51.73927 | 37868 ft | 467 kts | 250° |
| 2026-05-08 04:37 | 22.91054 | 51.67236 | 37868 ft | 469 kts | 250° |
| 2026-05-08 04:38 | 22.88885 | 51.60516 | 37872 ft | 471 kts | 250° |
| 2026-05-08 04:38 | 22.86707 | 51.53780 | 37871 ft | 472 kts | 250° |
| 2026-05-08 04:39 | 22.84551 | 51.47008 | 37869 ft | 472 kts | 253° |
| 2026-05-08 04:39 | 22.83210 | 51.40014 | 37872 ft | 473 kts | 258° |
| 2026-05-08 04:40 | 22.81945 | 51.32975 | 37873 ft | 473 kts | 258° |
| 2026-05-08 04:40 | 22.80699 | 51.25971 | 37874 ft | 473 kts | 258° |
| 2026-05-08 04:41 | 22.79451 | 51.18962 | 37873 ft | 473 kts | 258° |
| 2026-05-08 04:41 | 22.78198 | 51.11935 | 37873 ft | 473 kts | 258° |
| 2026-05-08 04:42 | 22.76935 | 51.04881 | 37872 ft | 472 kts | 258° |
| 2026-05-08 04:42 | 22.75666 | 50.97819 | 37872 ft | 471 kts | 258° |
| 2026-05-08 04:43 | 22.74408 | 50.90832 | 37872 ft | 470 kts | 258° |
| 2026-05-08 04:43 | 22.73151 | 50.83869 | 37872 ft | 470 kts | 258° |
| 2026-05-08 04:44 | 22.71882 | 50.76857 | 37871 ft | 470 kts | 258° |
| 2026-05-08 04:44 | 22.70609 | 50.69844 | 37871 ft | 470 kts | 258° |
| 2026-05-08 04:45 | 22.69343 | 50.62884 | 37870 ft | 470 kts | 258° |
| 2026-05-08 04:45 | 22.68066 | 50.55884 | 37870 ft | 470 kts | 258° |
| 2026-05-08 04:46 | 22.66785 | 50.48877 | 37870 ft | 470 kts | 258° |
| 2026-05-08 04:46 | 22.65519 | 50.41976 | 37869 ft | 470 kts | 258° |
| 2026-05-08 04:47 | 22.64233 | 50.34977 | 37873 ft | 470 kts | 257° |
| 2026-05-08 04:47 | 22.62948 | 50.28005 | 37886 ft | 470 kts | 257° |
| 2026-05-08 04:48 | 22.61658 | 50.21017 | 37891 ft | 470 kts | 257° |
| 2026-05-08 04:48 | 22.60368 | 50.14056 | 37893 ft | 470 kts | 257° |
| 2026-05-08 04:49 | 22.59074 | 50.07087 | 37902 ft | 470 kts | 257° |
| 2026-05-08 04:49 | 22.57778 | 50.00124 | 37915 ft | 470 kts | 257° |
| 2026-05-08 04:50 | 22.56473 | 49.93131 | 37930 ft | 470 kts | 257° |
| 2026-05-08 04:50 | 22.55176 | 49.86198 | 37958 ft | 470 kts | 257° |
| 2026-05-08 04:51 | 22.53911 | 49.79207 | 37991 ft | 471 kts | 261° |
| 2026-05-08 04:51 | 22.53971 | 49.72063 | 38028 ft | 474 kts | 275° |
| 2026-05-08 04:52 | 22.54639 | 49.64957 | 38044 ft | 474 kts | 274° |
| 2026-05-08 04:52 | 22.55318 | 49.57773 | 38043 ft | 474 kts | 274° |
| 2026-05-08 04:53 | 22.55989 | 49.50675 | 38043 ft | 474 kts | 274° |
| 2026-05-08 04:53 | 22.56659 | 49.43552 | 38043 ft | 474 kts | 274° |
| 2026-05-08 04:54 | 22.57328 | 49.36419 | 38042 ft | 474 kts | 274° |
| 2026-05-08 04:54 | 22.57994 | 49.29275 | 38047 ft | 474 kts | 274° |
| 2026-05-08 04:55 | 22.58656 | 49.22145 | 38047 ft | 474 kts | 274° |
| 2026-05-08 04:55 | 22.59315 | 49.14995 | 38046 ft | 472 kts | 274° |
| 2026-05-08 04:56 | 22.59966 | 49.07906 | 38046 ft | 470 kts | 274° |
| 2026-05-08 04:56 | 22.60614 | 49.00817 | 38046 ft | 468 kts | 274° |
| 2026-05-08 04:57 | 22.61253 | 48.93793 | 38045 ft | 466 kts | 274° |
| 2026-05-08 04:57 | 22.61894 | 48.86734 | 38045 ft | 466 kts | 274° |
| 2026-05-08 04:58 | 22.62529 | 48.79686 | 38044 ft | 467 kts | 274° |
| 2026-05-08 04:58 | 22.63156 | 48.72699 | 38044 ft | 466 kts | 274° |
| 2026-05-08 04:59 | 22.63778 | 48.65721 | 38043 ft | 466 kts | 274° |
| 2026-05-08 04:59 | 22.64406 | 48.58654 | 38043 ft | 466 kts | 274° |
| 2026-05-08 05:00 | 22.65025 | 48.51648 | 38043 ft | 467 kts | 274° |
| 2026-05-08 05:00 | 22.65646 | 48.44584 | 38042 ft | 467 kts | 274° |
| 2026-05-08 05:01 | 22.66261 | 48.37550 | 38042 ft | 467 kts | 274° |
| 2026-05-08 05:01 | 22.66876 | 48.30481 | 38048 ft | 467 kts | 274° |
| 2026-05-08 05:02 | 22.67487 | 48.23416 | 38047 ft | 466 kts | 274° |
| 2026-05-08 05:02 | 22.68087 | 48.16450 | 38047 ft | 466 kts | 274° |
| 2026-05-08 05:03 | 22.68692 | 48.09395 | 38046 ft | 466 kts | 274° |
| 2026-05-08 05:03 | 22.69287 | 48.02401 | 38046 ft | 466 kts | 274° |
| 2026-05-08 05:04 | 22.69877 | 47.95409 | 38045 ft | 466 kts | 274° |
| 2026-05-08 05:04 | 22.70466 | 47.88374 | 38045 ft | 466 kts | 274° |
| 2026-05-08 05:05 | 22.71053 | 47.81342 | 38045 ft | 466 kts | 274° |
| 2026-05-08 05:05 | 22.71637 | 47.74306 | 38044 ft | 466 kts | 274° |
| 2026-05-08 05:06 | 22.72220 | 47.67240 | 38044 ft | 466 kts | 274° |
| 2026-05-08 05:06 | 22.72799 | 47.60178 | 38043 ft | 466 kts | 274° |
| 2026-05-08 05:07 | 22.73374 | 47.53134 | 38043 ft | 466 kts | 274° |
| 2026-05-08 05:07 | 22.73943 | 47.46126 | 38042 ft | 466 kts | 274° |
| 2026-05-08 05:08 | 22.74513 | 47.39066 | 38042 ft | 466 kts | 274° |
| 2026-05-08 05:08 | 22.75077 | 47.32035 | 38049 ft | 466 kts | 274° |
| 2026-05-08 05:09 | 22.75631 | 47.25106 | 38048 ft | 466 kts | 274° |
| 2026-05-08 05:09 | 22.76190 | 47.18073 | 38047 ft | 466 kts | 274° |
| 2026-05-08 05:10 | 22.77031 | 47.07503 | 38046 ft | 466 kts | 274° |
| 2026-05-08 05:11 | 22.77588 | 47.00454 | 38046 ft | 466 kts | 274° |
| 2026-05-08 05:11 | 22.78132 | 46.93510 | 38045 ft | 465 kts | 274° |
| 2026-05-08 05:12 | 22.78679 | 46.86513 | 38045 ft | 464 kts | 274° |
| 2026-05-08 05:12 | 22.79224 | 46.79498 | 38044 ft | 464 kts | 274° |
| 2026-05-08 05:13 | 22.79765 | 46.72531 | 38044 ft | 464 kts | 274° |
| 2026-05-08 05:13 | 22.80304 | 46.65516 | 38043 ft | 464 kts | 274° |
| 2026-05-08 05:14 | 22.80841 | 46.58503 | 38042 ft | 464 kts | 274° |
| 2026-05-08 05:14 | 22.81371 | 46.51523 | 38042 ft | 464 kts | 274° |
| 2026-05-08 05:15 | 22.81903 | 46.44476 | 38041 ft | 464 kts | 274° |
| 2026-05-08 05:15 | 22.82428 | 46.37477 | 38032 ft | 464 kts | 274° |
| 2026-05-08 05:16 | 22.82947 | 46.30483 | 38039 ft | 464 kts | 274° |
| 2026-05-08 05:16 | 22.83465 | 46.23472 | 38038 ft | 464 kts | 274° |
| 2026-05-08 05:17 | 22.83979 | 46.16457 | 38038 ft | 464 kts | 274° |
| 2026-05-08 05:17 | 22.84490 | 46.09455 | 38037 ft | 464 kts | 274° |
| 2026-05-08 05:18 | 22.84997 | 46.02450 | 38037 ft | 464 kts | 274° |
| 2026-05-08 05:18 | 22.85502 | 45.95445 | 38036 ft | 464 kts | 274° |
| 2026-05-08 05:19 | 22.86006 | 45.88403 | 38036 ft | 464 kts | 274° |
| 2026-05-08 05:19 | 22.86502 | 45.81419 | 38036 ft | 464 kts | 274° |
| 2026-05-08 05:20 | 22.86995 | 45.74447 | 38052 ft | 464 kts | 274° |
| 2026-05-08 05:20 | 22.87486 | 45.67462 | 38070 ft | 464 kts | 274° |
| 2026-05-08 05:21 | 22.87977 | 45.60421 | 38091 ft | 464 kts | 274° |
| 2026-05-08 05:21 | 22.88459 | 45.53472 | 38097 ft | 463 kts | 274° |
| 2026-05-08 05:22 | 22.88943 | 45.46461 | 38097 ft | 463 kts | 274° |
| 2026-05-08 05:22 | 22.89424 | 45.39438 | 38097 ft | 463 kts | 274° |
| 2026-05-08 05:23 | 22.89899 | 45.32444 | 38104 ft | 462 kts | 274° |
| 2026-05-08 05:23 | 22.90369 | 45.25498 | 38103 ft | 462 kts | 273° |
| 2026-05-08 05:24 | 22.90842 | 45.18466 | 38103 ft | 462 kts | 273° |
| 2026-05-08 05:24 | 22.91305 | 45.11512 | 38102 ft | 461 kts | 273° |
| 2026-05-08 05:25 | 22.91766 | 45.04549 | 38102 ft | 460 kts | 273° |
| 2026-05-08 05:25 | 22.92222 | 44.97607 | 38101 ft | 459 kts | 274° |
| 2026-05-08 05:26 | 22.92671 | 44.90708 | 38100 ft | 458 kts | 274° |
| 2026-05-08 05:26 | 22.93122 | 44.83771 | 38099 ft | 457 kts | 274° |
| 2026-05-08 05:27 | 22.93567 | 44.76867 | 38099 ft | 456 kts | 274° |
| 2026-05-08 05:27 | 22.94003 | 44.70052 | 38098 ft | 456 kts | 274° |
| 2026-05-08 05:28 | 22.93990 | 44.63142 | 38102 ft | 456 kts | 268° |
| 2026-05-08 05:28 | 22.93721 | 44.56251 | 38097 ft | 456 kts | 268° |
| 2026-05-08 05:29 | 22.93424 | 44.49304 | 38096 ft | 456 kts | 268° |
| 2026-05-08 05:29 | 22.93120 | 44.42377 | 38096 ft | 457 kts | 268° |
| 2026-05-08 05:30 | 22.92814 | 44.35490 | 38095 ft | 457 kts | 268° |
| 2026-05-08 05:30 | 22.92502 | 44.28541 | 38103 ft | 457 kts | 267° |
| 2026-05-08 05:31 | 22.92189 | 44.21635 | 38103 ft | 458 kts | 267° |
| 2026-05-08 05:31 | 22.91871 | 44.14692 | 38102 ft | 458 kts | 267° |
| 2026-05-08 05:32 | 22.91551 | 44.07778 | 38102 ft | 458 kts | 267° |
| 2026-05-08 05:32 | 22.91229 | 44.00878 | 38101 ft | 459 kts | 267° |
| 2026-05-08 05:33 | 22.90903 | 43.93962 | 38101 ft | 459 kts | 267° |
| 2026-05-08 05:33 | 22.90575 | 43.87049 | 38100 ft | 459 kts | 267° |
| 2026-05-08 05:34 | 22.90240 | 43.80075 | 38099 ft | 460 kts | 267° |
| 2026-05-08 05:34 | 22.89903 | 43.73111 | 38099 ft | 460 kts | 267° |
| 2026-05-08 05:35 | 22.89564 | 43.66181 | 38098 ft | 460 kts | 267° |
| 2026-05-08 05:35 | 22.89220 | 43.59183 | 38098 ft | 461 kts | 267° |
| 2026-05-08 05:36 | 22.88873 | 43.52212 | 38097 ft | 461 kts | 267° |
| 2026-05-08 05:36 | 22.88522 | 43.45221 | 38097 ft | 462 kts | 267° |
| 2026-05-08 05:37 | 22.88168 | 43.38224 | 38096 ft | 462 kts | 267° |
| 2026-05-08 05:37 | 22.87811 | 43.31237 | 38104 ft | 462 kts | 266° |
| 2026-05-08 05:38 | 22.87453 | 43.24264 | 38103 ft | 462 kts | 266° |
| 2026-05-08 05:38 | 22.87089 | 43.17258 | 38102 ft | 463 kts | 267° |
| 2026-05-08 05:39 | 22.86720 | 43.10236 | 38102 ft | 465 kts | 267° |
| 2026-05-08 05:39 | 22.86348 | 43.03200 | 38101 ft | 467 kts | 267° |
| 2026-05-08 05:40 | 22.85976 | 42.96198 | 38100 ft | 469 kts | 267° |
| 2026-05-08 05:40 | 22.85595 | 42.89092 | 38100 ft | 469 kts | 267° |
| 2026-05-08 05:41 | 22.85214 | 42.82039 | 38099 ft | 469 kts | 267° |
| 2026-05-08 05:41 | 22.84826 | 42.74942 | 38099 ft | 469 kts | 267° |
| 2026-05-08 05:42 | 22.84436 | 42.67852 | 38100 ft | 469 kts | 267° |
| 2026-05-08 05:42 | 22.84044 | 42.60793 | 38103 ft | 469 kts | 267° |
| 2026-05-08 05:43 | 22.83646 | 42.53674 | 38108 ft | 469 kts | 267° |
| 2026-05-08 05:43 | 22.83247 | 42.46583 | 38113 ft | 469 kts | 267° |
| 2026-05-08 05:44 | 22.82843 | 42.39480 | 38124 ft | 469 kts | 267° |
| 2026-05-08 05:44 | 22.82432 | 42.32308 | 38141 ft | 469 kts | 267° |
| 2026-05-08 05:45 | 22.82022 | 42.25193 | 38151 ft | 469 kts | 267° |
| 2026-05-08 05:45 | 22.81612 | 42.18142 | 38156 ft | 469 kts | 267° |
| 2026-05-08 05:46 | 22.81196 | 42.11037 | 38155 ft | 469 kts | 267° |
| 2026-05-08 05:46 | 22.80777 | 42.03939 | 38155 ft | 469 kts | 267° |
| 2026-05-08 05:47 | 22.80353 | 41.96816 | 38154 ft | 469 kts | 267° |
| 2026-05-08 05:47 | 22.79922 | 41.89681 | 38154 ft | 469 kts | 266° |
| 2026-05-08 05:48 | 22.79258 | 41.82625 | 38154 ft | 469 kts | 265° |
| 2026-05-08 05:48 | 22.78584 | 41.75536 | 38153 ft | 469 kts | 265° |
| 2026-05-08 05:49 | 22.77910 | 41.68512 | 38153 ft | 469 kts | 265° |
| 2026-05-08 05:49 | 22.77228 | 41.61425 | 38152 ft | 469 kts | 265° |
| 2026-05-08 05:50 | 22.76548 | 41.54406 | 38152 ft | 469 kts | 265° |
| 2026-05-08 05:50 | 22.75860 | 41.47330 | 38152 ft | 469 kts | 265° |
| 2026-05-08 05:51 | 22.75170 | 41.40260 | 38151 ft | 469 kts | 265° |
| 2026-05-08 05:51 | 22.74450 | 41.33281 | 38153 ft | 469 kts | 261° |
| 2026-05-08 05:52 | 22.72574 | 41.26640 | 38164 ft | 472 kts | 250° |
| 2026-05-08 05:52 | 22.70170 | 41.19962 | 38156 ft | 472 kts | 250° |
| 2026-05-08 05:53 | 22.67741 | 41.13306 | 38156 ft | 471 kts | 250° |
| 2026-05-08 05:53 | 22.65313 | 41.06685 | 38155 ft | 471 kts | 250° |
| 2026-05-08 05:54 | 22.62889 | 41.00090 | 38155 ft | 472 kts | 250° |
| 2026-05-08 05:54 | 22.60442 | 40.93443 | 38154 ft | 474 kts | 250° |
| 2026-05-08 05:55 | 22.57989 | 40.86787 | 38154 ft | 476 kts | 250° |
| 2026-05-08 05:55 | 22.55521 | 40.80101 | 38154 ft | 478 kts | 250° |
| 2026-05-08 05:56 | 22.53064 | 40.73456 | 38153 ft | 478 kts | 250° |
| 2026-05-08 05:56 | 22.51261 | 40.68583 | 38153 ft | 478 kts | 250° |